createdAt,value
2023-03-20T00:01:30.961Z,3.05
2023-03-20T00:04:29.506Z,2.65
2023-03-20T00:07:27.387Z,2.10
2023-03-20T00:10:36.941Z,2.15
2023-03-20T00:13:33.786Z,2.35
2023-03-20T00:16:37.400Z,1.80
2023-03-20T00:19:34.209Z,3.00
2023-03-20T00:22:32.774Z,3.90
2023-03-20T00:25:29.709Z,5.05
2023-03-20T00:28:52.981Z,4.43
2023-03-20T00:31:50.076Z,4.95
2023-03-20T00:34:46.943Z,4.22
2023-03-20T00:37:43.817Z,3.92
2023-03-20T00:40:40.621Z,4.05
2023-03-20T00:43:37.779Z,3.90
2023-03-20T00:46:39.137Z,3.92
2023-03-20T00:49:36.182Z,3.80
2023-03-20T00:52:33.004Z,4.07
2023-03-20T00:55:30.293Z,3.58
2023-03-20T00:58:27.152Z,3.38
2023-03-20T01:01:24.377Z,3.53
2023-03-20T01:04:21.742Z,3.53
2023-03-20T01:07:18.922Z,3.10
2023-03-20T01:10:16.365Z,3.20
2023-03-20T01:13:19.356Z,3.00
2023-03-20T01:16:27.209Z,2.75
2023-03-20T01:19:24.066Z,3.05
2023-03-20T01:22:21.024Z,2.75
2023-03-20T01:25:18.327Z,2.55
2023-03-20T01:28:23.222Z,2.90
2023-03-20T01:31:20.196Z,2.90
2023-03-20T01:34:17.704Z,2.92
2023-03-20T01:37:23.303Z,2.83
2023-03-20T01:40:32.075Z,2.92
2023-03-20T01:43:29.566Z,2.70
2023-03-20T01:46:32.076Z,2.40
2023-03-20T01:49:28.825Z,2.08
2023-03-20T01:52:25.917Z,2.15
2023-03-20T01:55:23.830Z,1.85
2023-03-20T01:58:28.327Z,1.90
2023-03-20T02:01:27.741Z,2.10
2023-03-20T02:04:32.864Z,2.00
2023-03-20T02:07:32.468Z,2.20
2023-03-20T02:10:29.346Z,1.92
2023-03-20T02:13:31.354Z,2.10
2023-03-20T02:16:28.328Z,1.80
2023-03-20T02:20:07.309Z,2.00
2023-03-20T02:23:19.005Z,1.83
2023-03-20T02:26:54.862Z,2.00
2023-03-20T02:30:33.799Z,1.80
2023-03-20T02:33:45.945Z,1.70
2023-03-20T02:37:11.787Z,2.00
2023-03-20T02:40:37.250Z,2.03
2023-03-20T02:44:08.738Z,2.15
2023-03-20T02:47:29.930Z,2.33
2023-03-20T02:50:50.991Z,2.30
2023-03-20T02:54:28.320Z,2.20
2023-03-20T02:57:51.346Z,2.22
2023-03-20T03:01:09.906Z,2.45
2023-03-20T03:04:17.913Z,2.60
2023-03-20T03:07:18.580Z,3.05
2023-03-20T03:10:30.277Z,2.50
2023-03-20T03:13:32.430Z,2.40
2023-03-20T03:16:38.225Z,2.75
2023-03-20T03:19:38.685Z,2.42
2023-03-20T03:22:36.726Z,2.42
2023-03-20T03:25:39.915Z,2.70
2023-03-20T03:28:56.801Z,2.33
2023-03-20T03:31:54.951Z,2.42
2023-03-20T03:34:52.094Z,3.33
2023-03-20T03:38:02.567Z,2.30
2023-03-20T03:41:35.601Z,2.08
2023-03-20T03:44:51.402Z,2.20
2023-03-20T03:48:01.708Z,2.42
2023-03-20T03:51:12.891Z,2.28
2023-03-20T03:54:19.557Z,2.28
2023-03-20T03:57:21.741Z,2.78
2023-03-20T04:00:23.610Z,2.45
2023-03-20T04:03:24.919Z,2.67
2023-03-20T04:06:21.998Z,2.22
2023-03-20T04:09:19.007Z,2.47
2023-03-20T04:12:43.678Z,2.35
2023-03-20T04:15:40.490Z,2.35
2023-03-20T04:18:37.311Z,2.00
2023-03-20T04:21:34.124Z,3.08
2023-03-20T04:24:30.931Z,2.30
2023-03-20T04:27:27.775Z,2.35
2023-03-20T04:30:24.660Z,2.15
2023-03-20T04:33:21.698Z,2.38
2023-03-20T04:36:18.792Z,1.98
2023-03-20T04:39:16.426Z,2.17
2023-03-20T04:42:13.275Z,2.40
2023-03-20T04:45:10.623Z,2.00
2023-03-20T04:48:08.204Z,2.35
2023-03-20T04:51:05.310Z,2.20
2023-03-20T04:54:02.201Z,2.10
2023-03-20T04:56:59.032Z,1.70
2023-03-20T04:59:56.276Z,1.65
2023-03-20T05:02:53.089Z,1.90
2023-03-20T05:05:49.887Z,2.60
2023-03-20T05:08:46.852Z,3.80
2023-03-20T05:11:44.053Z,2.78
2023-03-20T05:14:41.363Z,3.38
2023-03-20T05:17:38.185Z,4.22
2023-03-20T05:20:36.326Z,7.35
2023-03-20T05:23:33.341Z,4.38
2023-03-20T05:26:30.191Z,3.80
2023-03-20T05:29:27.062Z,5.88
2023-03-20T05:32:23.878Z,7.78
2023-03-20T05:35:20.961Z,6.75
2023-03-20T05:38:17.783Z,5.07
2023-03-20T05:41:14.607Z,5.32
2023-03-20T05:44:11.446Z,6.28
2023-03-20T05:47:08.277Z,4.93
2023-03-20T05:50:05.582Z,5.03
2023-03-20T05:53:02.664Z,5.20
2023-03-20T05:55:59.509Z,4.70
2023-03-20T05:58:56.480Z,7.13
2023-03-20T06:01:53.305Z,8.32
2023-03-20T06:04:50.180Z,6.75
2023-03-20T06:07:46.984Z,6.30
2023-03-20T06:10:43.824Z,6.50
2023-03-20T06:13:40.671Z,6.18
2023-03-20T06:16:37.540Z,6.10
2023-03-20T06:19:34.389Z,6.60
2023-03-20T06:22:31.321Z,6.70
2023-03-20T06:25:28.308Z,8.75
2023-03-20T06:28:25.233Z,7.65
2023-03-20T06:31:22.144Z,7.07
2023-03-20T06:34:18.950Z,6.63
2023-03-20T06:37:15.909Z,8.18
2023-03-20T06:40:12.753Z,7.43
2023-03-20T06:43:12.381Z,8.23
2023-03-20T06:46:09.682Z,9.57
2023-03-20T06:49:06.515Z,7.43
2023-03-20T06:52:04.291Z,8.30
2023-03-20T06:55:01.226Z,9.18
2023-03-20T06:57:58.099Z,10.77
2023-03-20T07:00:54.956Z,12.32
2023-03-20T07:03:51.874Z,18.85
2023-03-20T07:06:48.716Z,13.00
2023-03-20T07:09:45.684Z,14.63
2023-03-20T07:12:42.619Z,12.50
2023-03-20T07:15:41.172Z,14.80
2023-03-20T07:18:43.310Z,15.02
2023-03-20T07:21:40.330Z,18.70
2023-03-20T07:24:37.183Z,15.95
2023-03-20T07:27:33.996Z,15.68
2023-03-20T07:30:32.029Z,12.45
2023-03-20T07:33:28.914Z,10.27
2023-03-20T07:36:25.827Z,14.70
2023-03-20T07:39:23.148Z,13.15
2023-03-20T07:42:19.966Z,12.60
2023-03-20T07:45:18.273Z,17.85
2023-03-20T07:48:15.125Z,21.33
2023-03-20T07:51:11.955Z,19.50
2023-03-20T07:54:08.755Z,15.95
2023-03-20T07:57:05.582Z,21.00
2023-03-20T08:00:02.876Z,13.80
2023-03-20T08:02:59.796Z,13.15
2023-03-20T08:05:56.701Z,13.55
2023-03-20T08:08:53.841Z,17.17
2023-03-20T08:11:51.189Z,15.57
2023-03-20T08:14:48.097Z,12.00
2023-03-20T08:17:46.416Z,13.98
2023-03-20T08:20:43.223Z,13.98
2023-03-20T08:23:40.033Z,12.65
2023-03-20T08:26:36.977Z,15.80
2023-03-20T08:29:33.878Z,16.25
2023-03-20T08:32:30.954Z,19.27
2023-03-20T08:35:33.372Z,17.02
2023-03-20T08:38:30.688Z,16.52
2023-03-20T08:41:27.514Z,12.10
2023-03-20T08:44:24.320Z,11.55
2023-03-20T08:47:21.145Z,17.55
2023-03-20T08:50:18.754Z,17.63
2023-03-20T08:53:15.744Z,14.80
2023-03-20T08:56:12.839Z,19.75
2023-03-20T08:59:09.654Z,14.30
2023-03-20T09:02:07.224Z,19.85
2023-03-20T09:05:04.487Z,16.88
2023-03-20T09:08:01.432Z,16.67
2023-03-20T09:10:58.247Z,15.82
2023-03-20T09:13:55.220Z,18.15
2023-03-20T09:16:52.206Z,17.50
2023-03-20T09:19:49.073Z,14.65
2023-03-20T09:22:46.201Z,13.98
2023-03-20T09:25:43.461Z,15.18
2023-03-20T09:28:40.274Z,16.52
2023-03-20T09:31:37.167Z,14.18
2023-03-20T09:34:34.008Z,20.70
2023-03-20T09:37:30.831Z,21.70
2023-03-20T09:40:38.143Z,22.15
2023-03-20T09:44:09.037Z,18.42
2023-03-20T09:47:28.326Z,16.55
2023-03-20T09:50:59.851Z,14.63
2023-03-20T09:54:18.962Z,28.25
2023-03-20T09:57:35.889Z,18.35
2023-03-20T10:00:36.004Z,23.85
2023-03-20T10:03:44.124Z,20.70
2023-03-20T10:06:41.258Z,25.52
2023-03-20T10:09:38.095Z,17.85
2023-03-20T10:13:00.264Z,19.25
2023-03-20T10:16:16.099Z,17.13
2023-03-20T10:19:34.001Z,17.80
2023-03-20T10:22:40.753Z,17.63
2023-03-20T10:25:55.207Z,15.95
2023-03-20T10:29:02.134Z,15.90
2023-03-20T10:32:38.603Z,15.73
2023-03-20T10:35:52.982Z,16.02
2023-03-20T10:39:05.155Z,16.40
2023-03-20T10:42:10.372Z,13.90
2023-03-20T10:45:18.304Z,13.52
2023-03-20T10:48:29.463Z,14.02
2023-03-20T10:51:51.671Z,13.88
2023-03-20T10:55:00.316Z,14.02
2023-03-20T10:58:22.845Z,12.82
2023-03-20T11:01:20.956Z,11.82
2023-03-20T11:04:17.895Z,13.13
2023-03-20T11:07:38.013Z,11.77
2023-03-20T11:10:38.689Z,10.73
2023-03-20T11:16:40.741Z,10.27
2023-03-20T11:19:41.626Z,13.35
2023-03-20T11:25:46.761Z,13.63
2023-03-20T11:28:57.872Z,11.57
2023-03-20T11:31:54.946Z,12.98
2023-03-20T11:34:52.225Z,12.73
2023-03-20T11:37:52.705Z,10.95
2023-03-20T11:40:52.517Z,12.02
2023-03-20T11:43:49.415Z,11.25
2023-03-20T11:46:56.730Z,10.95
2023-03-20T11:49:59.679Z,12.18
2023-03-20T11:52:56.847Z,11.70
2023-03-20T11:56:07.652Z,12.60
2023-03-20T11:59:18.392Z,11.85
2023-03-20T12:05:37.107Z,11.13
2023-03-20T12:08:39.279Z,10.77
2023-03-20T12:12:00.178Z,12.77
2023-03-20T12:18:40.936Z,10.52
2023-03-20T12:22:03.188Z,10.88
2023-03-20T12:25:24.210Z,11.18
2023-03-20T12:28:58.772Z,10.68
2023-03-20T12:32:34.278Z,10.13
2023-03-20T12:35:36.227Z,9.70
2023-03-20T12:38:34.656Z,9.65
2023-03-20T12:41:41.934Z,9.15
2023-03-20T12:45:13.880Z,9.43
2023-03-20T12:48:24.578Z,10.35
2023-03-20T12:51:35.747Z,7.25
2023-03-20T12:54:37.841Z,8.77
2023-03-20T12:58:03.367Z,8.27
2023-03-20T13:01:17.410Z,8.45
2023-03-20T13:04:21.820Z,8.23
2023-03-20T13:07:22.282Z,8.45
2023-03-20T13:10:23.601Z,9.07
2023-03-20T13:13:53.047Z,9.15
2023-03-20T13:17:15.750Z,6.63
2023-03-20T13:20:44.367Z,9.23
2023-03-20T13:23:59.516Z,9.63
2023-03-20T13:27:45.557Z,9.77
2023-03-20T13:31:19.775Z,9.50
2023-03-20T13:34:37.111Z,10.73
2023-03-20T13:37:40.686Z,9.93
2023-03-20T13:40:44.233Z,8.57
2023-03-20T13:43:54.641Z,7.20
2023-03-20T13:47:03.976Z,8.07
2023-03-20T13:50:38.492Z,7.32
2023-03-20T13:54:05.130Z,7.75
2023-03-20T13:57:44.605Z,7.00
2023-03-20T14:00:59.950Z,6.38
2023-03-20T14:03:57.795Z,6.88
2023-03-20T14:06:59.383Z,5.70
2023-03-20T14:09:57.314Z,5.97
2023-03-20T14:12:57.474Z,5.72
2023-03-20T14:16:01.333Z,4.70
2023-03-20T14:19:25.025Z,6.13
2023-03-20T14:22:28.987Z,8.05
2023-03-20T14:25:29.018Z,7.25
2023-03-20T14:28:34.088Z,7.38
2023-03-20T14:31:38.289Z,7.32
2023-03-20T14:34:48.136Z,7.20
2023-03-20T14:38:25.552Z,7.07
2023-03-20T14:41:52.343Z,6.32
2023-03-20T14:45:41.314Z,5.13
2023-03-20T14:48:46.729Z,5.55
2023-03-20T14:51:48.313Z,5.45
2023-03-20T14:54:55.735Z,4.68
2023-03-20T14:57:56.892Z,4.07
2023-03-20T15:00:54.285Z,4.63
2023-03-20T15:03:58.986Z,4.40
2023-03-20T15:07:17.914Z,4.22
2023-03-20T15:10:16.036Z,4.40
2023-03-20T15:13:15.954Z,4.68
2023-03-20T15:16:16.695Z,4.20
2023-03-20T15:19:20.264Z,4.28
2023-03-20T15:22:20.469Z,3.80
2023-03-20T15:25:19.739Z,4.20
2023-03-20T15:28:27.491Z,3.72
2023-03-20T15:31:39.127Z,3.72
2023-03-20T15:34:36.116Z,3.50
2023-03-20T15:37:34.822Z,3.63
2023-03-20T15:40:49.247Z,3.47
2023-03-20T15:43:50.277Z,3.40
2023-03-20T15:47:20.597Z,3.20
2023-03-20T15:50:17.700Z,3.95
2023-03-20T15:53:30.598Z,4.45
2023-03-20T15:56:28.155Z,3.70
2023-03-20T15:59:29.187Z,4.07
2023-03-20T16:02:27.932Z,4.40
2023-03-20T16:05:29.456Z,3.55
2023-03-20T16:08:33.516Z,3.65
2023-03-20T16:11:44.543Z,3.75
2023-03-20T16:14:41.660Z,3.72
2023-03-20T16:17:38.876Z,5.05
2023-03-20T16:20:42.279Z,4.68
2023-03-20T16:23:44.682Z,3.17
2023-03-20T16:26:47.904Z,3.63
2023-03-20T16:29:44.933Z,3.40
2023-03-20T16:32:47.089Z,3.78
2023-03-20T16:35:48.504Z,3.05
2023-03-20T16:39:19.109Z,3.17
2023-03-20T16:42:28.460Z,3.90
2023-03-20T16:45:31.547Z,3.58
2023-03-20T16:48:42.420Z,4.40
2023-03-20T16:54:37.016Z,4.10
2023-03-20T16:57:37.179Z,3.22
2023-03-20T17:00:58.671Z,4.03
2023-03-20T17:04:33.791Z,3.40
2023-03-20T17:07:31.886Z,3.65
2023-03-20T17:10:29.400Z,3.72
2023-03-20T17:13:26.625Z,4.30
2023-03-20T17:16:25.372Z,6.53
2023-03-20T17:19:22.476Z,5.97
2023-03-20T17:22:25.263Z,4.18
2023-03-20T17:25:22.477Z,4.57
2023-03-20T17:28:24.437Z,5.43
2023-03-20T17:31:21.450Z,3.60
2023-03-20T17:34:18.470Z,4.45
2023-03-20T17:37:23.092Z,4.60
2023-03-20T17:40:22.682Z,4.03
2023-03-20T17:43:20.221Z,5.22
2023-03-20T17:46:24.026Z,3.72
2023-03-20T17:49:26.807Z,4.50
2023-03-20T17:52:28.880Z,4.57
2023-03-20T17:55:25.739Z,3.38
2023-03-20T17:58:23.784Z,4.60
2023-03-20T18:01:20.702Z,4.43
2023-03-20T18:04:19.650Z,4.75
2023-03-20T18:07:18.129Z,4.40
2023-03-20T18:10:31.834Z,4.53
2023-03-20T18:13:29.516Z,4.95
2023-03-20T18:16:27.525Z,5.22
2023-03-20T18:19:29.167Z,4.30
2023-03-20T18:22:26.140Z,3.72
2023-03-20T18:25:25.940Z,4.18
2023-03-20T18:28:23.360Z,4.88
2023-03-20T18:31:21.454Z,3.50
2023-03-20T18:34:18.826Z,4.95
2023-03-20T18:37:15.818Z,4.68
2023-03-20T18:40:26.903Z,5.80
2023-03-20T18:43:23.776Z,6.70
2023-03-20T18:46:23.065Z,8.82
2023-03-20T18:49:21.132Z,8.10
2023-03-20T18:52:18.337Z,7.05
2023-03-20T18:55:15.253Z,5.43
2023-03-20T18:58:28.841Z,6.90
2023-03-20T19:01:27.196Z,5.78
2023-03-20T19:04:24.099Z,6.28
2023-03-20T19:07:21.047Z,6.70
2023-03-20T19:10:33.884Z,7.07
2023-03-20T19:13:30.982Z,7.65
2023-03-20T19:16:35.252Z,9.63
2023-03-20T19:19:32.140Z,5.35
2023-03-20T19:22:29.932Z,3.92
2023-03-20T19:25:27.124Z,4.32
2023-03-20T19:28:40.568Z,4.72
2023-03-20T19:31:37.966Z,4.95
2023-03-20T19:37:53.348Z,3.97
2023-03-20T19:40:53.044Z,4.30
2023-03-20T19:43:53.501Z,5.35
2023-03-20T19:46:52.721Z,3.78
2023-03-20T19:49:49.664Z,3.88
2023-03-20T19:52:46.551Z,3.97
2023-03-20T19:55:44.026Z,4.00
2023-03-20T19:58:41.327Z,3.80
2023-03-20T20:01:38.218Z,4.05
2023-03-20T20:04:35.554Z,3.47
2023-03-20T20:10:52.247Z,2.85
2023-03-20T20:14:07.648Z,3.13
2023-03-20T20:17:05.877Z,3.17
2023-03-20T20:20:06.305Z,2.65
2023-03-20T20:26:07.884Z,3.00
2023-03-20T20:29:04.778Z,3.65
2023-03-20T20:32:01.841Z,2.85
2023-03-20T20:38:49.454Z,2.70
2023-03-20T20:41:33.104Z,2.88
2023-03-20T20:44:29.936Z,3.40
2023-03-20T20:47:26.822Z,4.25
2023-03-20T20:50:29.930Z,10.57
2023-03-20T20:53:26.838Z,6.93
2023-03-20T20:56:23.702Z,2.97
2023-03-20T20:59:20.660Z,3.25
2023-03-20T21:02:17.626Z,2.58
2023-03-20T21:05:16.763Z,2.35
2023-03-20T21:08:14.458Z,2.33
2023-03-20T21:11:15.021Z,2.10
2023-03-20T21:14:12.050Z,2.17
2023-03-20T21:17:10.391Z,1.85
2023-03-20T21:20:07.924Z,2.17
2023-03-20T21:23:04.901Z,2.20
2023-03-20T21:26:01.792Z,1.90
2023-03-20T21:28:58.644Z,2.97
2023-03-20T21:31:55.539Z,2.50
2023-03-20T21:34:53.199Z,2.25
2023-03-20T21:38:45.312Z,2.30
2023-03-20T21:41:09.256Z,2.38
2023-03-20T21:44:07.619Z,2.40
2023-03-20T21:47:55.673Z,2.15
2023-03-20T21:50:58.092Z,3.35
2023-03-20T21:57:55.115Z,3.88
2023-03-20T22:01:07.959Z,3.03
2023-03-20T22:04:06.380Z,2.97
2023-03-20T22:07:26.746Z,4.28
2023-03-20T22:10:53.375Z,3.55
2023-03-20T22:23:56.358Z,2.22
2023-03-20T22:34:09.193Z,2.88
2023-03-20T22:43:44.652Z,2.70
2023-03-20T22:46:39.943Z,2.70
2023-03-20T22:49:30.510Z,2.67
2023-03-20T22:52:41.700Z,2.42
2023-03-20T22:55:46.858Z,2.58
2023-03-20T22:58:43.721Z,3.05
2023-03-20T23:01:40.857Z,2.50
2023-03-20T23:04:37.898Z,2.63
2023-03-20T23:07:35.117Z,2.53
2023-03-20T23:10:32.889Z,2.10
2023-03-20T23:13:29.729Z,2.58
2023-03-20T23:16:26.679Z,1.80
2023-03-20T23:19:23.584Z,1.83
2023-03-20T23:22:20.477Z,2.10
2023-03-20T23:25:27.425Z,2.63
2023-03-20T23:28:37.388Z,2.45
2023-03-20T23:31:34.292Z,2.40
2023-03-20T23:34:31.158Z,2.60
2023-03-20T23:37:28.072Z,2.50
2023-03-20T23:40:25.519Z,2.50
2023-03-20T23:43:22.859Z,2.20
2023-03-20T23:46:19.771Z,2.60
2023-03-20T23:49:17.511Z,2.65
2023-03-20T23:52:14.502Z,2.42
2023-03-20T23:55:11.373Z,3.97
2023-03-20T23:58:08.252Z,2.20
